sensor_id;sensor_type;location;lat;lon;timestamp;P1;durP1;ratioP1;P2;durP2;ratioP2
22829;SDS011;11581;51.250;6.778;2024-01-16T00:02:39;7.78;;;3.20;;
22829;SDS011;11581;51.250;6.778;2024-01-16T00:06:05;6.03;;;3.08;;
22829;SDS011;11581;51.250;6.778;2024-01-16T00:09:33;8.15;;;2.75;;
22829;SDS011;11581;51.250;6.778;2024-01-16T00:12:58;5.90;;;2.65;;
22829;SDS011;11581;51.250;6.778;2024-01-16T00:16:24;10.90;;;2.55;;
22829;SDS011;11581;51.250;6.778;2024-01-16T00:23:14;4.45;;;2.35;;
22829;SDS011;11581;51.250;6.778;2024-01-16T00:30:06;3.83;;;2.50;;
22829;SDS011;11581;51.250;6.778;2024-01-16T00:33:33;7.07;;;2.80;;
22829;SDS011;11581;51.250;6.778;2024-01-16T00:36:58;4.20;;;2.65;;
22829;SDS011;11581;51.250;6.778;2024-01-16T00:40:23;6.30;;;2.78;;
22829;SDS011;11581;51.250;6.778;2024-01-16T00:43:50;5.80;;;2.92;;
22829;SDS011;11581;51.250;6.778;2024-01-16T00:47:15;6.95;;;3.33;;
22829;SDS011;11581;51.250;6.778;2024-01-16T00:50:24;4.93;;;3.47;;
22829;SDS011;11581;51.250;6.778;2024-01-16T00:53:49;5.05;;;3.38;;
22829;SDS011;11581;51.250;6.778;2024-01-16T00:57:15;7.15;;;3.65;;
22829;SDS011;11581;51.250;6.778;2024-01-16T01:00:42;8.52;;;4.05;;
22829;SDS011;11581;51.250;6.778;2024-01-16T01:04:07;4.25;;;3.25;;
22829;SDS011;11581;51.250;6.778;2024-01-16T01:07:33;7.88;;;3.63;;
22829;SDS011;11581;51.250;6.778;2024-01-16T01:11:00;6.30;;;4.18;;
22829;SDS011;11581;51.250;6.778;2024-01-16T01:14:25;7.07;;;4.18;;
22829;SDS011;11581;51.250;6.778;2024-01-16T01:16:55;5.65;;;4.15;;
22829;SDS011;11581;51.250;6.778;2024-01-16T01:20:20;7.78;;;4.53;;
22829;SDS011;11581;51.250;6.778;2024-01-16T01:23:46;6.25;;;5.03;;
22829;SDS011;11581;51.250;6.778;2024-01-16T01:30:36;12.68;;;5.85;;
22829;SDS011;11581;51.250;6.778;2024-01-16T01:34:03;8.63;;;5.43;;
22829;SDS011;11581;51.250;6.778;2024-01-16T01:37:29;12.52;;;6.30;;
22829;SDS011;11581;51.250;6.778;2024-01-16T01:40:56;8.50;;;6.13;;
22829;SDS011;11581;51.250;6.778;2024-01-16T01:43:25;9.30;;;5.10;;
22829;SDS011;11581;51.250;6.778;2024-01-16T01:45:56;8.50;;;5.65;;
22829;SDS011;11581;51.250;6.778;2024-01-16T01:49:26;12.35;;;6.40;;
22829;SDS011;11581;51.250;6.778;2024-01-16T01:51:54;8.20;;;5.43;;
22829;SDS011;11581;51.250;6.778;2024-01-16T01:54:21;9.82;;;5.55;;
22829;SDS011;11581;51.250;6.778;2024-01-16T01:56:55;7.78;;;5.20;;
22829;SDS011;11581;51.250;6.778;2024-01-16T01:59:22;8.63;;;5.53;;
22829;SDS011;11581;51.250;6.778;2024-01-16T02:01:51;11.20;;;5.50;;
22829;SDS011;11581;51.250;6.778;2024-01-16T02:05:20;8.05;;;5.50;;
22829;SDS011;11581;51.250;6.778;2024-01-16T02:08:40;10.13;;;5.40;;
22829;SDS011;11581;51.250;6.778;2024-01-16T02:11:23;9.00;;;5.03;;
22829;SDS011;11581;51.250;6.778;2024-01-16T02:14:48;7.95;;;5.38;;
22829;SDS011;11581;51.250;6.778;2024-01-16T02:18:13;8.77;;;5.13;;
22829;SDS011;11581;51.250;6.778;2024-01-16T02:21:45;8.60;;;5.30;;
22829;SDS011;11581;51.250;6.778;2024-01-16T02:25:15;10.35;;;5.82;;
22829;SDS011;11581;51.250;6.778;2024-01-16T02:28:41;8.98;;;5.88;;
22829;SDS011;11581;51.250;6.778;2024-01-16T02:31:47;10.45;;;6.20;;
22829;SDS011;11581;51.250;6.778;2024-01-16T02:38:37;10.25;;;6.22;;
22829;SDS011;11581;51.250;6.778;2024-01-16T02:42:04;12.63;;;6.95;;
22829;SDS011;11581;51.250;6.778;2024-01-16T02:45:29;11.25;;;6.85;;
22829;SDS011;11581;51.250;6.778;2024-01-16T02:48:54;8.38;;;5.85;;
22829;SDS011;11581;51.250;6.778;2024-01-16T02:52:20;8.98;;;5.88;;
22829;SDS011;11581;51.250;6.778;2024-01-16T02:55:45;10.18;;;6.45;;
22829;SDS011;11581;51.250;6.778;2024-01-16T02:59:11;13.13;;;6.50;;
22829;SDS011;11581;51.250;6.778;2024-01-16T03:02:37;15.10;;;7.00;;
22829;SDS011;11581;51.250;6.778;2024-01-16T03:06:02;10.40;;;6.28;;
22829;SDS011;11581;51.250;6.778;2024-01-16T03:09:27;11.13;;;6.18;;
22829;SDS011;11581;51.250;6.778;2024-01-16T03:12:52;8.30;;;6.18;;
22829;SDS011;11581;51.250;6.778;2024-01-16T03:15:44;11.02;;;6.32;;
22829;SDS011;11581;51.250;6.778;2024-01-16T03:18:20;10.10;;;6.65;;
22829;SDS011;11581;51.250;6.778;2024-01-16T03:21:44;11.45;;;6.43;;
22829;SDS011;11581;51.250;6.778;2024-01-16T03:24:26;7.57;;;5.57;;
22829;SDS011;11581;51.250;6.778;2024-01-16T03:27:46;10.57;;;5.75;;
22829;SDS011;11581;51.250;6.778;2024-01-16T03:31:13;9.88;;;5.15;;
22829;SDS011;11581;51.250;6.778;2024-01-16T03:34:02;9.15;;;5.57;;
22829;SDS011;11581;51.250;6.778;2024-01-16T03:37:27;7.65;;;5.50;;
22829;SDS011;11581;51.250;6.778;2024-01-16T03:40:52;10.10;;;5.55;;
22829;SDS011;11581;51.250;6.778;2024-01-16T03:47:43;8.50;;;4.75;;
22829;SDS011;11581;51.250;6.778;2024-01-16T03:51:08;8.57;;;4.30;;
22829;SDS011;11581;51.250;6.778;2024-01-16T03:54:34;7.43;;;4.35;;
22829;SDS011;11581;51.250;6.778;2024-01-16T03:57:30;5.32;;;4.18;;
22829;SDS011;11581;51.250;6.778;2024-01-16T04:00:55;6.35;;;4.07;;
22829;SDS011;11581;51.250;6.778;2024-01-16T04:04:22;9.30;;;4.13;;
22829;SDS011;11581;51.250;6.778;2024-01-16T04:07:46;9.48;;;4.25;;
22829;SDS011;11581;51.250;6.778;2024-01-16T04:10:25;6.85;;;4.47;;
22829;SDS011;11581;51.250;6.778;2024-01-16T04:13:39;6.88;;;3.70;;
22829;SDS011;11581;51.250;6.778;2024-01-16T04:17:04;5.30;;;3.42;;
22829;SDS011;11581;51.250;6.778;2024-01-16T04:20:31;6.22;;;3.78;;
22829;SDS011;11581;51.250;6.778;2024-01-16T04:23:54;7.57;;;3.75;;
22829;SDS011;11581;51.250;6.778;2024-01-16T04:30:45;6.75;;;3.70;;
22829;SDS011;11581;51.250;6.778;2024-01-16T04:34:12;6.32;;;3.55;;
22829;SDS011;11581;51.250;6.778;2024-01-16T04:37:38;9.88;;;3.65;;
22829;SDS011;11581;51.250;6.778;2024-01-16T04:40:05;5.38;;;3.70;;
22829;SDS011;11581;51.250;6.778;2024-01-16T04:43:31;4.80;;;3.40;;
22829;SDS011;11581;51.250;6.778;2024-01-16T04:46:56;6.30;;;3.60;;
22829;SDS011;11581;51.250;6.778;2024-01-16T04:49:30;6.40;;;3.45;;
22829;SDS011;11581;51.250;6.778;2024-01-16T04:52:59;5.90;;;3.30;;
22829;SDS011;11581;51.250;6.778;2024-01-16T04:56:24;7.22;;;3.58;;
22829;SDS011;11581;51.250;6.778;2024-01-16T04:59:49;5.78;;;3.65;;
22829;SDS011;11581;51.250;6.778;2024-01-16T05:03:14;6.32;;;3.88;;
22829;SDS011;11581;51.250;6.778;2024-01-16T05:06:39;9.23;;;4.30;;
22829;SDS011;11581;51.250;6.778;2024-01-16T05:09:25;10.00;;;4.45;;
22829;SDS011;11581;51.250;6.778;2024-01-16T05:12:29;6.55;;;4.35;;
22829;SDS011;11581;51.250;6.778;2024-01-16T05:15:54;6.88;;;4.20;;
22829;SDS011;11581;51.250;6.778;2024-01-16T05:19:19;8.85;;;4.10;;
22829;SDS011;11581;51.250;6.778;2024-01-16T05:26:11;6.65;;;4.22;;
22829;SDS011;11581;51.250;6.778;2024-01-16T05:29:05;12.15;;;4.60;;
22829;SDS011;11581;51.250;6.778;2024-01-16T05:32:15;14.02;;;5.03;;
22829;SDS011;11581;51.250;6.778;2024-01-16T05:34:50;8.60;;;3.90;;
22829;SDS011;11581;51.250;6.778;2024-01-16T05:37:43;9.13;;;4.70;;
22829;SDS011;11581;51.250;6.778;2024-01-16T05:44:36;9.98;;;4.03;;
22829;SDS011;11581;51.250;6.778;2024-01-16T05:48:01;9.63;;;4.15;;
22829;SDS011;11581;51.250;6.778;2024-01-16T05:54:50;10.75;;;3.85;;
22829;SDS011;11581;51.250;6.778;2024-01-16T05:58:16;6.80;;;3.55;;
22829;SDS011;11581;51.250;6.778;2024-01-16T06:01:25;10.50;;;3.60;;
22829;SDS011;11581;51.250;6.778;2024-01-16T06:04:21;8.82;;;3.42;;
22829;SDS011;11581;51.250;6.778;2024-01-16T06:07:46;13.73;;;3.38;;
22829;SDS011;11581;51.250;6.778;2024-01-16T06:11:11;8.07;;;3.78;;
22829;SDS011;11581;51.250;6.778;2024-01-16T06:14:38;9.38;;;3.38;;
22829;SDS011;11581;51.250;6.778;2024-01-16T06:18:04;15.35;;;3.88;;
22829;SDS011;11581;51.250;6.778;2024-01-16T06:21:29;7.90;;;3.42;;
22829;SDS011;11581;51.250;6.778;2024-01-16T06:24:55;11.82;;;3.47;;
22829;SDS011;11581;51.250;6.778;2024-01-16T06:28:20;10.98;;;3.78;;
22829;SDS011;11581;51.250;6.778;2024-01-16T06:31:50;7.00;;;4.00;;
22829;SDS011;11581;51.250;6.778;2024-01-16T06:35:15;7.72;;;3.47;;
22829;SDS011;11581;51.250;6.778;2024-01-16T06:38:41;10.95;;;3.58;;
22829;SDS011;11581;51.250;6.778;2024-01-16T06:42:06;10.02;;;3.47;;
22829;SDS011;11581;51.250;6.778;2024-01-16T06:44:54;13.45;;;3.13;;
22829;SDS011;11581;51.250;6.778;2024-01-16T06:47:22;12.82;;;3.28;;
22829;SDS011;11581;51.250;6.778;2024-01-16T06:50:48;5.28;;;2.78;;
22829;SDS011;11581;51.250;6.778;2024-01-16T06:53:20;7.60;;;3.00;;
22829;SDS011;11581;51.250;6.778;2024-01-16T06:56:46;6.88;;;3.13;;
22829;SDS011;11581;51.250;6.778;2024-01-16T07:00:12;11.50;;;3.40;;
22829;SDS011;11581;51.250;6.778;2024-01-16T07:02:46;8.13;;;2.42;;
22829;SDS011;11581;51.250;6.778;2024-01-16T07:06:11;10.32;;;2.97;;
22829;SDS011;11581;51.250;6.778;2024-01-16T07:09:38;10.98;;;2.92;;
22829;SDS011;11581;51.250;6.778;2024-01-16T07:13:03;7.53;;;3.03;;
22829;SDS011;11581;51.250;6.778;2024-01-16T07:16:29;12.98;;;2.85;;
22829;SDS011;11581;51.250;6.778;2024-01-16T07:19:00;9.48;;;2.50;;
22829;SDS011;11581;51.250;6.778;2024-01-16T07:22:27;7.63;;;2.30;;
22829;SDS011;11581;51.250;6.778;2024-01-16T07:25:08;9.55;;;2.45;;
22829;SDS011;11581;51.250;6.778;2024-01-16T07:28:33;6.60;;;2.30;;
22829;SDS011;11581;51.250;6.778;2024-01-16T07:31:34;6.20;;;2.42;;
22829;SDS011;11581;51.250;6.778;2024-01-16T07:34:03;9.27;;;2.58;;
22829;SDS011;11581;51.250;6.778;2024-01-16T07:37:28;5.88;;;2.15;;
22829;SDS011;11581;51.250;6.778;2024-01-16T07:40:51;10.18;;;2.80;;
22829;SDS011;11581;51.250;6.778;2024-01-16T07:44:16;9.77;;;2.70;;
22829;SDS011;11581;51.250;6.778;2024-01-16T07:47:41;7.82;;;2.55;;
22829;SDS011;11581;51.250;6.778;2024-01-16T07:50:12;13.63;;;2.80;;
22829;SDS011;11581;51.250;6.778;2024-01-16T07:53:37;12.48;;;2.28;;
22829;SDS011;11581;51.250;6.778;2024-01-16T07:57:03;9.55;;;2.47;;
22829;SDS011;11581;51.250;6.778;2024-01-16T08:00:30;7.10;;;2.05;;
22829;SDS011;11581;51.250;6.778;2024-01-16T08:03:55;11.15;;;2.13;;
22829;SDS011;11581;51.250;6.778;2024-01-16T08:07:22;8.30;;;2.13;;
22829;SDS011;11581;51.250;6.778;2024-01-16T08:10:48;6.38;;;2.00;;
22829;SDS011;11581;51.250;6.778;2024-01-16T08:13:44;7.15;;;2.78;;
22829;SDS011;11581;51.250;6.778;2024-01-16T08:17:09;9.18;;;2.67;;
22829;SDS011;11581;51.250;6.778;2024-01-16T08:19:55;10.00;;;2.30;;
22829;SDS011;11581;51.250;6.778;2024-01-16T08:23:22;8.05;;;2.03;;
22829;SDS011;11581;51.250;6.778;2024-01-16T08:26:47;6.57;;;2.17;;
22829;SDS011;11581;51.250;6.778;2024-01-16T08:30:13;4.38;;;1.88;;
22829;SDS011;11581;51.250;6.778;2024-01-16T08:37:03;11.55;;;2.58;;
22829;SDS011;11581;51.250;6.778;2024-01-16T08:40:31;9.10;;;2.65;;
22829;SDS011;11581;51.250;6.778;2024-01-16T08:43:56;10.80;;;3.03;;
22829;SDS011;11581;51.250;6.778;2024-01-16T08:47:21;6.75;;;2.30;;
22829;SDS011;11581;51.250;6.778;2024-01-16T08:50:46;7.07;;;2.33;;
22829;SDS011;11581;51.250;6.778;2024-01-16T08:54:12;5.30;;;2.03;;
22829;SDS011;11581;51.250;6.778;2024-01-16T08:57:38;4.35;;;1.80;;
22829;SDS011;11581;51.250;6.778;2024-01-16T09:01:05;7.18;;;2.25;;
22829;SDS011;11581;51.250;6.778;2024-01-16T09:04:30;5.93;;;2.13;;
22829;SDS011;11581;51.250;6.778;2024-01-16T09:07:56;5.40;;;2.30;;
22829;SDS011;11581;51.250;6.778;2024-01-16T09:11:21;6.25;;;2.15;;
22829;SDS011;11581;51.250;6.778;2024-01-16T09:14:47;6.97;;;2.35;;
22829;SDS011;11581;51.250;6.778;2024-01-16T09:18:14;7.45;;;2.30;;
22829;SDS011;11581;51.250;6.778;2024-01-16T09:21:39;9.23;;;2.60;;
22829;SDS011;11581;51.250;6.778;2024-01-16T09:25:05;13.32;;;2.72;;
22829;SDS011;11581;51.250;6.778;2024-01-16T09:27:49;7.97;;;2.00;;
22829;SDS011;11581;51.250;6.778;2024-01-16T09:31:19;7.25;;;2.60;;
22829;SDS011;11581;51.250;6.778;2024-01-16T09:34:44;8.43;;;2.58;;
22829;SDS011;11581;51.250;6.778;2024-01-16T09:38:09;15.77;;;2.55;;
22829;SDS011;11581;51.250;6.778;2024-01-16T09:41:36;9.02;;;2.70;;
22829;SDS011;11581;51.250;6.778;2024-01-16T09:44:29;7.53;;;2.67;;
22829;SDS011;11581;51.250;6.778;2024-01-16T09:46:57;8.27;;;2.40;;
22829;SDS011;11581;51.250;6.778;2024-01-16T09:49:25;6.50;;;2.50;;
22829;SDS011;11581;51.250;6.778;2024-01-16T09:52:50;9.15;;;2.35;;
22829;SDS011;11581;51.250;6.778;2024-01-16T09:56:16;6.63;;;2.25;;
22829;SDS011;11581;51.250;6.778;2024-01-16T09:59:45;8.15;;;2.42;;
22829;SDS011;11581;51.250;6.778;2024-01-16T10:03:15;5.97;;;2.08;;
22829;SDS011;11581;51.250;6.778;2024-01-16T10:06:40;8.27;;;2.53;;
22829;SDS011;11581;51.250;6.778;2024-01-16T10:10:09;7.70;;;2.83;;
22829;SDS011;11581;51.250;6.778;2024-01-16T10:13:35;6.40;;;2.42;;
22829;SDS011;11581;51.250;6.778;2024-01-16T10:17:03;4.85;;;1.77;;
22829;SDS011;11581;51.250;6.778;2024-01-16T10:19:33;9.10;;;2.67;;
22829;SDS011;11581;51.250;6.778;2024-01-16T10:22:59;7.03;;;2.40;;
22829;SDS011;11581;51.250;6.778;2024-01-16T10:26:36;10.98;;;2.58;;
22829;SDS011;11581;51.250;6.778;2024-01-16T10:30:02;9.18;;;1.98;;
22829;SDS011;11581;51.250;6.778;2024-01-16T10:33:27;9.80;;;2.72;;
22829;SDS011;11581;51.250;6.778;2024-01-16T10:36:58;7.55;;;2.38;;
22829;SDS011;11581;51.250;6.778;2024-01-16T10:40:23;9.15;;;2.40;;
22829;SDS011;11581;51.250;6.778;2024-01-16T10:43:51;8.77;;;2.28;;
22829;SDS011;11581;51.250;6.778;2024-01-16T10:47:28;5.90;;;2.35;;
22829;SDS011;11581;51.250;6.778;2024-01-16T10:50:54;7.70;;;2.58;;
22829;SDS011;11581;51.250;6.778;2024-01-16T10:54:20;8.73;;;2.28;;
22829;SDS011;11581;51.250;6.778;2024-01-16T10:57:47;4.68;;;2.22;;
22829;SDS011;11581;51.250;6.778;2024-01-16T11:01:16;6.80;;;2.63;;
22829;SDS011;11581;51.250;6.778;2024-01-16T11:04:46;6.15;;;2.38;;
22829;SDS011;11581;51.250;6.778;2024-01-16T11:08:13;8.38;;;2.53;;
22829;SDS011;11581;51.250;6.778;2024-01-16T11:10:57;5.97;;;2.25;;
22829;SDS011;11581;51.250;6.778;2024-01-16T11:14:23;8.60;;;2.40;;
22829;SDS011;11581;51.250;6.778;2024-01-16T11:17:50;6.28;;;2.28;;
22829;SDS011;11581;51.250;6.778;2024-01-16T11:21:15;9.82;;;3.67;;
22829;SDS011;11581;51.250;6.778;2024-01-16T11:23:42;7.82;;;3.50;;
22829;SDS011;11581;51.250;6.778;2024-01-16T11:27:03;6.22;;;2.30;;
22829;SDS011;11581;51.250;6.778;2024-01-16T11:29:49;8.32;;;3.13;;
22829;SDS011;11581;51.250;6.778;2024-01-16T11:37:24;6.78;;;2.38;;
22829;SDS011;11581;51.250;6.778;2024-01-16T11:40:52;6.45;;;2.47;;
22829;SDS011;11581;51.250;6.778;2024-01-16T11:48:16;6.25;;;2.45;;
22829;SDS011;11581;51.250;6.778;2024-01-16T11:51:45;7.55;;;2.45;;
22829;SDS011;11581;51.250;6.778;2024-01-16T11:55:24;6.88;;;2.40;;
22829;SDS011;11581;51.250;6.778;2024-01-16T11:59:32;5.72;;;2.35;;
22829;SDS011;11581;51.250;6.778;2024-01-16T12:03:07;11.75;;;2.83;;
22829;SDS011;11581;51.250;6.778;2024-01-16T12:06:34;8.82;;;2.85;;
22829;SDS011;11581;51.250;6.778;2024-01-16T12:10:14;6.03;;;2.22;;
22829;SDS011;11581;51.250;6.778;2024-01-16T12:13:47;8.05;;;2.90;;
22829;SDS011;11581;51.250;6.778;2024-01-16T12:17:25;6.72;;;2.58;;
22829;SDS011;11581;51.250;6.778;2024-01-16T12:20:51;7.68;;;2.55;;
22829;SDS011;11581;51.250;6.778;2024-01-16T12:24:17;7.43;;;2.72;;
22829;SDS011;11581;51.250;6.778;2024-01-16T12:27:45;7.85;;;2.42;;
22829;SDS011;11581;51.250;6.778;2024-01-16T12:31:10;4.93;;;2.42;;
22829;SDS011;11581;51.250;6.778;2024-01-16T12:34:46;7.60;;;2.40;;
22829;SDS011;11581;51.250;6.778;2024-01-16T12:38:12;6.38;;;2.25;;
22829;SDS011;11581;51.250;6.778;2024-01-16T12:41:39;10.63;;;2.65;;
22829;SDS011;11581;51.250;6.778;2024-01-16T12:44:08;6.80;;;2.63;;
22829;SDS011;11581;51.250;6.778;2024-01-16T12:47:15;6.95;;;2.63;;
22829;SDS011;11581;51.250;6.778;2024-01-16T12:50:41;6.82;;;2.53;;
22829;SDS011;11581;51.250;6.778;2024-01-16T12:54:10;9.98;;;2.45;;
22829;SDS011;11581;51.250;6.778;2024-01-16T12:57:24;6.57;;;2.42;;
22829;SDS011;11581;51.250;6.778;2024-01-16T13:03:15;7.80;;;2.47;;
22829;SDS011;11581;51.250;6.778;2024-01-16T13:06:44;7.47;;;2.22;;
22829;SDS011;11581;51.250;6.778;2024-01-16T13:10:09;8.02;;;2.50;;
22829;SDS011;11581;51.250;6.778;2024-01-16T13:13:12;5.68;;;2.72;;
22829;SDS011;11581;51.250;6.778;2024-01-16T13:15:45;8.77;;;2.58;;
22829;SDS011;11581;51.250;6.778;2024-01-16T13:19:09;12.18;;;3.05;;
22829;SDS011;11581;51.250;6.778;2024-01-16T13:21:36;8.38;;;2.50;;
22829;SDS011;11581;51.250;6.778;2024-01-16T13:24:04;7.32;;;2.30;;
22829;SDS011;11581;51.250;6.778;2024-01-16T13:26:32;6.13;;;2.47;;
22829;SDS011;11581;51.250;6.778;2024-01-16T13:28:59;8.55;;;2.65;;
22829;SDS011;11581;51.250;6.778;2024-01-16T13:31:26;10.40;;;2.75;;
22829;SDS011;11581;51.250;6.778;2024-01-16T13:33:52;8.35;;;2.95;;
22829;SDS011;11581;51.250;6.778;2024-01-16T13:36:21;5.55;;;2.28;;
22829;SDS011;11581;51.250;6.778;2024-01-16T13:38:48;7.22;;;2.85;;
22829;SDS011;11581;51.250;6.778;2024-01-16T13:41:16;8.45;;;3.05;;
22829;SDS011;11581;51.250;6.778;2024-01-16T13:43:43;5.82;;;2.60;;
22829;SDS011;11581;51.250;6.778;2024-01-16T13:46:09;13.30;;;3.38;;
22829;SDS011;11581;51.250;6.778;2024-01-16T13:48:36;6.53;;;2.38;;
22829;SDS011;11581;51.250;6.778;2024-01-16T13:51:03;5.63;;;2.72;;
22829;SDS011;11581;51.250;6.778;2024-01-16T13:53:30;10.07;;;2.53;;
22829;SDS011;11581;51.250;6.778;2024-01-16T13:55:57;10.10;;;3.08;;
22829;SDS011;11581;51.250;6.778;2024-01-16T13:58:25;8.30;;;2.85;;
22829;SDS011;11581;51.250;6.778;2024-01-16T14:00:52;8.05;;;2.80;;
22829;SDS011;11581;51.250;6.778;2024-01-16T14:03:19;8.73;;;2.70;;
22829;SDS011;11581;51.250;6.778;2024-01-16T14:05:46;8.10;;;3.10;;
22829;SDS011;11581;51.250;6.778;2024-01-16T14:08:12;8.70;;;2.58;;
22829;SDS011;11581;51.250;6.778;2024-01-16T14:10:39;5.47;;;2.63;;
22829;SDS011;11581;51.250;6.778;2024-01-16T14:13:06;7.60;;;2.25;;
22829;SDS011;11581;51.250;6.778;2024-01-16T14:15:34;6.85;;;2.72;;
22829;SDS011;11581;51.250;6.778;2024-01-16T14:18:01;5.28;;;2.38;;
22829;SDS011;11581;51.250;6.778;2024-01-16T14:20:28;6.45;;;2.67;;
22829;SDS011;11581;51.250;6.778;2024-01-16T14:22:55;3.75;;;2.13;;
22829;SDS011;11581;51.250;6.778;2024-01-16T14:25:23;8.07;;;2.67;;
22829;SDS011;11581;51.250;6.778;2024-01-16T14:27:55;7.32;;;2.28;;
22829;SDS011;11581;51.250;6.778;2024-01-16T14:30:26;6.00;;;2.38;;
22829;SDS011;11581;51.250;6.778;2024-01-16T14:32:54;6.10;;;2.53;;
22829;SDS011;11581;51.250;6.778;2024-01-16T14:35:21;6.22;;;2.67;;
22829;SDS011;11581;51.250;6.778;2024-01-16T14:37:49;9.52;;;2.80;;
22829;SDS011;11581;51.250;6.778;2024-01-16T14:40:16;5.22;;;2.33;;
22829;SDS011;11581;51.250;6.778;2024-01-16T14:42:45;7.00;;;2.30;;
22829;SDS011;11581;51.250;6.778;2024-01-16T14:45:14;7.80;;;2.70;;
22829;SDS011;11581;51.250;6.778;2024-01-16T14:47:41;7.90;;;2.47;;
22829;SDS011;11581;51.250;6.778;2024-01-16T14:50:09;7.45;;;2.67;;
22829;SDS011;11581;51.250;6.778;2024-01-16T14:52:35;6.80;;;2.65;;
22829;SDS011;11581;51.250;6.778;2024-01-16T14:55:04;8.52;;;3.42;;
22829;SDS011;11581;51.250;6.778;2024-01-16T14:57:32;6.65;;;2.35;;
22829;SDS011;11581;51.250;6.778;2024-01-16T15:00:06;5.93;;;2.90;;
22829;SDS011;11581;51.250;6.778;2024-01-16T15:02:40;8.18;;;2.58;;
22829;SDS011;11581;51.250;6.778;2024-01-16T15:05:07;8.73;;;2.90;;
22829;SDS011;11581;51.250;6.778;2024-01-16T15:07:35;7.75;;;2.38;;
22829;SDS011;11581;51.250;6.778;2024-01-16T15:10:02;6.75;;;2.90;;
22829;SDS011;11581;51.250;6.778;2024-01-16T15:12:31;10.52;;;3.00;;
22829;SDS011;11581;51.250;6.778;2024-01-16T15:14:57;4.88;;;2.63;;
22829;SDS011;11581;51.250;6.778;2024-01-16T15:17:24;9.35;;;2.75;;
22829;SDS011;11581;51.250;6.778;2024-01-16T15:19:55;6.13;;;2.47;;
22829;SDS011;11581;51.250;6.778;2024-01-16T15:22:23;6.72;;;2.35;;
22829;SDS011;11581;51.250;6.778;2024-01-16T15:24:49;5.28;;;2.60;;
22829;SDS011;11581;51.250;6.778;2024-01-16T15:27:16;5.47;;;2.60;;
22829;SDS011;11581;51.250;6.778;2024-01-16T15:29:48;4.85;;;2.42;;
22829;SDS011;11581;51.250;6.778;2024-01-16T15:32:15;5.28;;;2.50;;
22829;SDS011;11581;51.250;6.778;2024-01-16T15:34:42;6.00;;;1.98;;
22829;SDS011;11581;51.250;6.778;2024-01-16T15:37:08;7.68;;;2.20;;
22829;SDS011;11581;51.250;6.778;2024-01-16T15:39:36;3.65;;;2.28;;
22829;SDS011;11581;51.250;6.778;2024-01-16T15:42:03;9.35;;;1.83;;
22829;SDS011;11581;51.250;6.778;2024-01-16T15:44:30;7.63;;;2.42;;
22829;SDS011;11581;51.250;6.778;2024-01-16T15:46:57;7.22;;;2.13;;
22829;SDS011;11581;51.250;6.778;2024-01-16T15:49:25;7.22;;;2.35;;
22829;SDS011;11581;51.250;6.778;2024-01-16T15:51:52;8.35;;;2.30;;
22829;SDS011;11581;51.250;6.778;2024-01-16T15:54:19;5.15;;;1.90;;
22829;SDS011;11581;51.250;6.778;2024-01-16T15:56:47;5.80;;;2.13;;
22829;SDS011;11581;51.250;6.778;2024-01-16T15:59:14;7.70;;;2.22;;
22829;SDS011;11581;51.250;6.778;2024-01-16T16:01:43;8.38;;;2.67;;
22829;SDS011;11581;51.250;6.778;2024-01-16T16:04:10;7.38;;;2.28;;
22829;SDS011;11581;51.250;6.778;2024-01-16T16:06:37;10.45;;;3.20;;
22829;SDS011;11581;51.250;6.778;2024-01-16T16:09:05;8.77;;;2.58;;
22829;SDS011;11581;51.250;6.778;2024-01-16T16:11:36;7.85;;;2.03;;
22829;SDS011;11581;51.250;6.778;2024-01-16T16:14:05;7.22;;;2.90;;
22829;SDS011;11581;51.250;6.778;2024-01-16T16:16:32;9.75;;;2.50;;
22829;SDS011;11581;51.250;6.778;2024-01-16T16:18:58;6.75;;;2.08;;
22829;SDS011;11581;51.250;6.778;2024-01-16T16:21:25;8.35;;;2.45;;
22829;SDS011;11581;51.250;6.778;2024-01-16T16:23:52;8.98;;;2.67;;
22829;SDS011;11581;51.250;6.778;2024-01-16T16:26:28;4.82;;;2.15;;
22829;SDS011;11581;51.250;6.778;2024-01-16T16:28:57;7.60;;;2.40;;
22829;SDS011;11581;51.250;6.778;2024-01-16T16:31:26;7.00;;;2.28;;
22829;SDS011;11581;51.250;6.778;2024-01-16T16:33:53;5.80;;;2.20;;
22829;SDS011;11581;51.250;6.778;2024-01-16T16:36:19;7.53;;;2.25;;
22829;SDS011;11581;51.250;6.778;2024-01-16T16:38:46;5.53;;;2.58;;
22829;SDS011;11581;51.250;6.778;2024-01-16T16:41:12;5.55;;;2.40;;
22829;SDS011;11581;51.250;6.778;2024-01-16T16:43:39;6.80;;;2.75;;
22829;SDS011;11581;51.250;6.778;2024-01-16T16:46:06;9.10;;;2.58;;
22829;SDS011;11581;51.250;6.778;2024-01-16T16:48:34;5.40;;;2.55;;
22829;SDS011;11581;51.250;6.778;2024-01-16T16:51:00;6.97;;;2.90;;
22829;SDS011;11581;51.250;6.778;2024-01-16T16:53:27;6.43;;;2.95;;
22829;SDS011;11581;51.250;6.778;2024-01-16T16:55:54;5.72;;;2.78;;
22829;SDS011;11581;51.250;6.778;2024-01-16T16:58:21;8.52;;;3.17;;
22829;SDS011;11581;51.250;6.778;2024-01-16T17:00:47;7.78;;;3.72;;
22829;SDS011;11581;51.250;6.778;2024-01-16T17:03:14;7.35;;;3.30;;
22829;SDS011;11581;51.250;6.778;2024-01-16T17:05:42;8.25;;;3.25;;
22829;SDS011;11581;51.250;6.778;2024-01-16T17:08:09;11.45;;;3.42;;
22829;SDS011;11581;51.250;6.778;2024-01-16T17:10:37;8.93;;;3.25;;
22829;SDS011;11581;51.250;6.778;2024-01-16T17:13:04;9.90;;;3.33;;
22829;SDS011;11581;51.250;6.778;2024-01-16T17:15:31;12.68;;;3.35;;
22829;SDS011;11581;51.250;6.778;2024-01-16T17:18:00;9.18;;;3.38;;
22829;SDS011;11581;51.250;6.778;2024-01-16T17:20:28;10.82;;;3.88;;
22829;SDS011;11581;51.250;6.778;2024-01-16T17:22:56;10.55;;;4.38;;
22829;SDS011;11581;51.250;6.778;2024-01-16T17:25:23;8.00;;;3.60;;
22829;SDS011;11581;51.250;6.778;2024-01-16T17:27:50;7.13;;;3.15;;
22829;SDS011;11581;51.250;6.778;2024-01-16T17:30:16;7.10;;;3.25;;
22829;SDS011;11581;51.250;6.778;2024-01-16T17:32:43;8.50;;;3.53;;
22829;SDS011;11581;51.250;6.778;2024-01-16T17:35:10;7.13;;;3.67;;
22829;SDS011;11581;51.250;6.778;2024-01-16T17:37:38;7.72;;;3.55;;
22829;SDS011;11581;51.250;6.778;2024-01-16T17:40:07;7.50;;;3.22;;
22829;SDS011;11581;51.250;6.778;2024-01-16T17:42:37;9.00;;;4.05;;
22829;SDS011;11581;51.250;6.778;2024-01-16T17:45:04;7.78;;;3.70;;
22829;SDS011;11581;51.250;6.778;2024-01-16T17:47:33;8.38;;;3.03;;
22829;SDS011;11581;51.250;6.778;2024-01-16T17:50:00;8.38;;;3.70;;
22829;SDS011;11581;51.250;6.778;2024-01-16T17:52:28;11.90;;;3.78;;
22829;SDS011;11581;51.250;6.778;2024-01-16T17:54:58;7.68;;;3.28;;
22829;SDS011;11581;51.250;6.778;2024-01-16T17:57:26;9.80;;;3.90;;
22829;SDS011;11581;51.250;6.778;2024-01-16T17:59:53;10.43;;;4.03;;
22829;SDS011;11581;51.250;6.778;2024-01-16T18:02:20;6.95;;;3.50;;
22829;SDS011;11581;51.250;6.778;2024-01-16T18:04:47;6.85;;;3.88;;
22829;SDS011;11581;51.250;6.778;2024-01-16T18:07:13;8.32;;;3.60;;
22829;SDS011;11581;51.250;6.778;2024-01-16T18:09:40;9.65;;;3.70;;
22829;SDS011;11581;51.250;6.778;2024-01-16T18:12:08;15.85;;;4.30;;
22829;SDS011;11581;51.250;6.778;2024-01-16T18:14:37;10.82;;;3.97;;
22829;SDS011;11581;51.250;6.778;2024-01-16T18:17:04;11.98;;;4.10;;
22829;SDS011;11581;51.250;6.778;2024-01-16T18:19:32;7.90;;;3.90;;
22829;SDS011;11581;51.250;6.778;2024-01-16T18:21:59;8.02;;;3.40;;
22829;SDS011;11581;51.250;6.778;2024-01-16T18:24:27;11.60;;;3.78;;
22829;SDS011;11581;51.250;6.778;2024-01-16T18:26:53;10.52;;;4.20;;
22829;SDS011;11581;51.250;6.778;2024-01-16T18:29:21;12.27;;;4.00;;
22829;SDS011;11581;51.250;6.778;2024-01-16T18:31:49;11.55;;;3.65;;
22829;SDS011;11581;51.250;6.778;2024-01-16T18:34:22;7.65;;;3.55;;
22829;SDS011;11581;51.250;6.778;2024-01-16T18:36:49;9.63;;;4.18;;
22829;SDS011;11581;51.250;6.778;2024-01-16T18:39:16;17.48;;;4.07;;
22829;SDS011;11581;51.250;6.778;2024-01-16T18:41:44;6.15;;;3.53;;